Time;durP1;ratioP1;P1;durP2;ratioP2;P2;SDS_P1;SDS_P2;PMS_P1;PMS_P2;Temp;Humidity;BMP_temperature;BMP_pressure;BME280_temperature;BME280_humidity;BME280_pressure;Samples;Min_cycle;Max_cycle;Signal;HPM_P1;HPM_P2
2022/11/20 00:00:08;;;;;;;23.20;11.40;;;;;;;11.21;nan;-24130.19;5033618;28;20199;-74
2022/11/20 00:02:33;;;;;;;19.67;9.65;;;;;;;11.11;nan;-24127.34;5033582;28;20195;-75
2022/11/20 00:04:58;;;;;;;22.73;10.73;;;;;;;10.61;nan;-24113.53;5033826;28;20615;-73
2022/11/20 00:07:24;;;;;;;19.65;10.38;;;;;;;11.11;nan;-24127.34;5032942;28;20175;-73
2022/11/20 00:09:49;;;;;;;19.52;9.25;;;;;;;11.15;nan;-24128.47;5033031;28;20526;-74
2022/11/20 00:12:15;;;;;;;25.35;11.70;;;;;;;11.18;nan;-24129.19;5033615;28;20227;-74
2022/11/20 00:14:41;;;;;;;21.75;11.02;;;;;;;10.66;nan;-24114.81;5034093;28;20170;-75
2022/11/20 00:17:06;;;;;;;20.20;10.45;;;;;;;10.96;nan;-24123.13;5015954;28;20229;-74
2022/11/20 00:19:31;;;;;;;24.33;10.25;;;;;;;11.32;nan;-24133.28;5033213;28;20609;-74
2022/11/20 00:21:57;;;;;;;21.23;10.45;;;;;;;11.43;nan;-24136.38;5034160;28;20167;-72
2022/11/20 00:24:22;;;;;;;18.25;10.05;;;;;;;11.30;nan;-24132.72;5033470;28;20186;-73
2022/11/20 00:26:48;;;;;;;19.27;9.55;;;;;;;10.84;nan;-24119.88;5033015;28;20189;-73
2022/11/20 00:29:13;;;;;;;21.70;10.95;;;;;;;10.70;nan;-24115.78;5015521;28;20198;-72
2022/11/20 00:31:38;;;;;;;22.23;11.43;;;;;;;10.76;nan;-24117.47;5032879;28;20674;-74
2022/11/20 00:34:04;;;;;;;18.33;10.02;;;;;;;10.89;nan;-24121.28;5033097;28;20217;-74
2022/11/20 00:36:33;;;;;;;22.65;10.13;;;;;;;10.68;nan;-24115.38;5033529;28;20194;-75
2022/11/20 00:38:59;;;;;;;15.82;9.48;;;;;;;10.89;nan;-24121.28;5033238;28;20233;-74
2022/11/20 00:41:25;;;;;;;21.33;10.18;;;;;;;10.66;nan;-24114.66;5032937;28;20270;-73
2022/11/20 00:43:54;;;;;;;20.52;10.77;;;;;;;11.26;nan;-24131.59;5033451;28;20172;-75
2022/11/20 00:46:25;;;;;;;21.02;11.05;;;;;;;10.99;nan;-24123.97;5032792;28;20206;-75
2022/11/20 00:48:51;;;;;;;21.92;11.70;;;;;;;10.94;nan;-24122.56;5024267;28;20187;-74
2022/11/20 00:51:19;;;;;;;24.90;10.43;;;;;;;10.87;nan;-24120.59;5022520;28;20208;-74
2022/11/20 00:53:45;;;;;;;18.67;11.27;;;;;;;10.90;nan;-24121.56;5021317;28;20183;-73
2022/11/20 00:56:15;;;;;;;17.73;10.23;;;;;;;11.11;nan;-24127.34;5032651;28;20487;-74
2022/11/20 00:58:42;;;;;;;27.05;11.10;;;;;;;10.95;nan;-24122.84;5032413;28;20534;-74
2022/11/20 01:01:11;;;;;;;16.85;9.68;;;;;;;10.92;nan;-24122.00;5032494;28;20175;-73
2022/11/20 01:03:43;;;;;;;24.80;9.73;;;;;;;10.81;nan;-24118.91;5032197;28;20185;-74
2022/11/20 01:06:11;;;;;;;23.95;10.52;;;;;;;11.14;nan;-24128.06;5032561;28;20179;-74
2022/11/20 01:08:38;;;;;;;21.73;10.48;;;;;;;11.08;nan;-24126.50;5032942;28;20171;-73
2022/11/20 01:11:08;;;;;;;22.58;10.00;;;;;;;11.04;nan;-24125.38;5031887;28;20280;-74
2022/11/20 01:13:37;;;;;;;22.10;9.32;;;;;;;10.62;nan;-24113.81;5032669;28;20171;-74
2022/11/20 01:16:20;;;;;;;16.23;10.50;;;;;;;11.02;nan;-24124.81;5025930;28;20278;-74
2022/11/20 01:18:48;;;;;;;22.83;9.75;;;;;;;11.01;nan;-24124.53;5014810;28;20171;-74
2022/11/20 01:21:16;;;;;;;25.02;11.50;;;;;;;11.02;nan;-24124.97;5032437;28;20175;-73
2022/11/20 01:23:43;;;;;;;19.50;10.77;;;;;;;11.25;nan;-24131.31;5011325;28;20270;-73
2022/11/20 01:26:11;;;;;;;24.38;10.95;;;;;;;11.26;nan;-24131.44;5012183;28;20176;-73
2022/11/20 01:28:37;;;;;;;24.25;10.82;;;;;;;10.81;nan;-24118.91;5012166;28;20531;-74
2022/11/20 01:31:18;;;;;;;20.35;10.57;;;;;;;11.12;nan;-24127.50;5013020;28;20226;-75
2022/11/20 01:33:45;;;;;;;18.52;9.70;;;;;;;11.31;nan;-24132.84;5012336;28;20190;-74
2022/11/20 01:36:11;;;;;;;26.30;10.70;;;;;;;11.34;nan;-24133.69;5012268;28;20176;-74
2022/11/20 01:38:36;;;;;;;17.70;10.52;;;;;;;10.89;nan;-24121.28;5012112;28;20164;-74
2022/11/20 01:41:02;;;;;;;19.25;9.93;;;;;;;11.50;nan;-24138.22;5012466;28;20251;-74
2022/11/20 01:43:28;;;;;;;21.02;10.52;;;;;;;10.99;nan;-24123.97;5012729;28;20247;-74
2022/11/20 01:46:02;;;;;;;20.40;11.20;;;;;;;11.55;nan;-24139.47;5027175;28;20202;-73
2022/11/20 01:48:36;;;;;;;22.98;11.15;;;;;;;11.47;nan;-24137.50;5031526;28;20162;-74
2022/11/20 01:51:02;;;;;;;26.42;11.75;;;;;;;11.37;nan;-24134.69;5031424;28;20636;-74
2022/11/20 01:53:33;;;;;;;19.67;10.30;;;;;;;11.14;nan;-24128.06;5031386;28;20163;-73
2022/11/20 01:56:01;;;;;;;19.98;10.27;;;;;;;11.47;nan;-24137.50;5031567;28;20167;-75
2022/11/20 01:58:38;;;;;;;16.92;9.23;;;;;;;11.66;nan;-24142.72;5031256;28;20175;-72
2022/11/20 02:01:04;;;;;;;19.95;9.68;;;;;;;11.71;nan;-24143.97;5030858;28;20280;-73
2022/11/20 02:03:30;;;;;;;20.48;10.15;;;;;;;11.19;nan;-24129.59;5030923;28;20171;-73
2022/11/20 02:06:16;;;;;;;21.75;9.95;;;;;;;11.68;nan;-24143.28;5031818;28;20619;-74
2022/11/20 02:08:41;;;;;;;24.05;10.25;;;;;;;11.57;nan;-24140.19;5031126;28;20229;-73
2022/11/20 02:11:07;;;;;;;19.60;9.85;;;;;;;11.22;nan;-24130.47;5031089;28;20569;-74
2022/11/20 02:13:42;;;;;;;18.73;10.73;;;;;;;11.37;nan;-24134.69;5031411;28;20673;-73
2022/11/20 02:16:11;;;;;;;26.10;10.40;;;;;;;11.80;nan;-24146.53;5025510;28;20179;-73
2022/11/20 02:18:38;;;;;;;18.83;9.90;;;;;;;11.25;nan;-24131.31;5020441;28;20205;-73
2022/11/20 02:21:14;;;;;;;24.27;10.35;;;;;;;11.70;nan;-24143.69;5025432;28;20195;-74
2022/11/20 02:24:04;;;;;;;19.98;9.77;;;;;;;11.14;nan;-24128.06;5013580;28;20175;-73
2022/11/20 02:26:32;;;;;;;20.52;9.30;;;;;;;11.57;nan;-24140.03;5022574;28;20691;-74
2022/11/20 02:29:00;;;;;;;19.52;9.43;;;;;;;11.56;nan;-24139.91;5016165;28;20179;-74
2022/11/20 02:31:26;;;;;;;19.10;10.13;;;;;;;11.38;nan;-24134.97;5032154;28;20211;-74
2022/11/20 02:33:57;;;;;;;15.68;9.32;;;;;;;10.81;nan;-24118.91;5035637;28;20193;-73
2022/11/20 02:36:26;;;;;;;18.58;9.88;;;;;;;11.68;nan;-24143.28;5035454;28;20667;-74
2022/11/20 02:38:51;;;;;;;20.33;10.00;;;;;;;11.26;nan;-24131.44;5035793;28;20203;-74
2022/11/20 02:41:17;;;;;;;20.00;10.23;;;;;;;11.82;nan;-24147.09;5034731;28;20245;-74
2022/11/20 02:43:42;;;;;;;15.55;8.20;;;;;;;11.74;nan;-24144.84;5035307;28;20175;-74
2022/11/20 02:46:08;;;;;;;16.48;8.48;;;;;;;11.74;nan;-24144.84;5035184;28;20221;-74
2022/11/20 02:48:33;;;;;;;18.20;9.82;;;;;;;11.77;nan;-24145.81;5035099;28;20172;-73
2022/11/20 02:50:59;;;;;;;16.60;9.35;;;;;;;11.60;nan;-24141.03;5034898;28;20297;-74
2022/11/20 02:53:24;;;;;;;15.10;7.57;;;;;;;11.69;nan;-24143.56;5035007;28;20593;-73
2022/11/20 02:55:49;;;;;;;17.83;7.47;;;;;;;11.94;nan;-24150.59;5034872;28;20176;-74
2022/11/20 02:58:15;;;;;;;12.52;6.53;;;;;;;12.55;nan;-24167.34;5035246;28;20168;-74
2022/11/20 03:00:40;;;;;;;11.93;7.00;;;;;;;12.36;nan;-24162.16;5034808;28;20175;-74
2022/11/20 03:03:05;;;;;;;12.80;7.28;;;;;;;12.65;nan;-24170.31;5035155;28;20176;-73
2022/11/20 03:05:31;;;;;;;13.57;7.18;;;;;;;12.69;nan;-24171.44;5035211;28;20174;-73
2022/11/20 03:07:56;;;;;;;13.15;7.43;;;;;;;12.89;nan;-24176.78;5034463;28;20170;-73
2022/11/20 03:10:22;;;;;;;14.25;6.68;;;;;;;13.25;nan;-24186.91;5034562;28;20191;-73
2022/11/20 03:12:47;;;;;;;13.60;6.05;;;;;;;13.14;nan;-24183.94;5035654;28;20246;-72
2022/11/20 03:15:12;;;;;;;12.70;7.53;;;;;;;13.06;nan;-24181.69;5034767;28;20477;-73
2022/11/20 03:17:38;;;;;;;13.55;7.78;;;;;;;12.90;nan;-24177.19;5034565;28;20176;-74
2022/11/20 03:20:04;;;;;;;16.92;8.35;;;;;;;12.97;nan;-24179.16;5034193;28;20699;-74
2022/11/20 03:22:30;;;;;;;15.25;8.10;;;;;;;12.61;nan;-24169.03;5034244;28;20598;-73
2022/11/20 03:24:55;;;;;;;15.68;8.43;;;;;;;12.86;nan;-24176.06;5034138;28;20201;-74
2022/11/20 03:27:20;;;;;;;15.05;7.85;;;;;;;12.78;nan;-24173.81;5034585;28;20623;-73
2022/11/20 03:29:46;;;;;;;17.77;7.85;;;;;;;12.56;nan;-24167.63;5034625;28;20191;-73
2022/11/20 03:32:11;;;;;;;11.38;6.65;;;;;;;12.66;nan;-24170.59;5034458;28;20187;-72
2022/11/20 03:34:37;;;;;;;18.30;7.90;;;;;;;12.85;nan;-24175.78;5034457;28;20168;-73
2022/11/20 03:37:02;;;;;;;13.02;7.18;;;;;;;12.77;nan;-24173.69;5016197;28;20268;-74
2022/11/20 03:39:27;;;;;;;14.95;7.15;;;;;;;12.87;nan;-24176.22;5033610;28;20164;-73
2022/11/20 03:41:53;;;;;;;12.75;7.15;;;;;;;12.81;nan;-24174.66;5033817;28;20190;-74
2022/11/20 03:44:21;;;;;;;12.38;6.55;;;;;;;12.84;nan;-24175.50;5034405;28;20164;-73
2022/11/20 03:46:46;;;;;;;14.52;7.15;;;;;;;13.03;nan;-24180.72;5016240;28;20557;-73
2022/11/20 03:49:12;;;;;;;19.83;6.82;;;;;;;13.03;nan;-24180.72;5033886;28;20163;-74
2022/11/20 03:51:37;;;;;;;12.85;7.63;;;;;;;13.17;nan;-24184.66;5034014;28;20659;-73
2022/11/20 03:54:06;;;;;;;13.18;7.60;;;;;;;13.31;nan;-24188.44;5033816;28;20694;-74
2022/11/20 03:56:35;;;;;;;13.15;6.90;;;;;;;13.03;nan;-24180.84;5025626;28;20191;-74
2022/11/20 03:59:01;;;;;;;12.60;5.43;;;;;;;12.89;nan;-24176.78;5018964;28;20218;-73
2022/11/20 04:01:30;;;;;;;13.98;6.72;;;;;;;12.88;nan;-24176.50;5033499;28;20241;-73
2022/11/20 04:03:56;;;;;;;15.48;6.45;;;;;;;12.79;nan;-24174.09;5033605;28;20642;-74
2022/11/20 04:06:25;;;;;;;14.25;6.90;;;;;;;13.05;nan;-24181.41;5033731;28;20175;-74
2022/11/20 04:08:51;;;;;;;16.63;8.05;;;;;;;12.71;nan;-24172.00;5033775;28;20251;-75
2022/11/20 04:11:19;;;;;;;14.20;6.53;;;;;;;13.07;nan;-24181.84;5033587;28;20708;-74
2022/11/20 04:13:53;;;;;;;12.40;7.15;;;;;;;13.09;nan;-24182.41;5015637;28;20179;-73
2022/11/20 04:16:20;;;;;;;13.23;6.43;;;;;;;12.92;nan;-24177.75;5033683;28;20167;-74
2022/11/20 04:18:45;;;;;;;8.65;5.68;;;;;;;12.96;nan;-24178.88;5034011;28;20171;-73
2022/11/20 04:21:12;;;;;;;6.40;3.83;;;;;;;13.24;nan;-24186.63;5033260;28;20178;-73
2022/11/20 04:23:38;;;;;;;6.50;4.07;;;;;;;13.58;nan;-24196.03;5033856;28;20270;-74
2022/11/20 04:26:06;;;;;;;13.30;5.28;;;;;;;13.41;nan;-24191.25;5032990;28;20529;-74
2022/11/20 04:28:32;;;;;;;10.20;5.40;;;;;;;13.45;nan;-24192.53;5033005;28;20254;-73
2022/11/20 04:31:09;;;;;;;10.35;5.40;;;;;;;13.24;nan;-24186.63;5015329;28;20322;-73
2022/11/20 04:33:35;;;;;;;9.50;4.30;;;;;;;13.48;nan;-24193.22;5014972;28;20567;-73
2022/11/20 04:36:03;;;;;;;7.28;4.50;;;;;;;13.49;nan;-24193.50;5032950;28;20183;-73
2022/11/20 04:38:28;;;;;;;12.38;4.43;;;;;;;13.35;nan;-24189.72;5032989;28;20168;-73
2022/11/20 04:41:02;;;;;;;5.75;3.95;;;;;;;13.24;nan;-24186.75;5033184;28;20175;-73
2022/11/20 04:43:28;;;;;;;8.52;4.30;;;;;;;13.59;nan;-24196.31;5015712;28;20552;-72
2022/11/20 04:45:55;;;;;;;8.27;5.22;;;;;;;13.11;nan;-24183.09;5033003;28;20186;-73
2022/11/20 04:48:20;;;;;;;10.60;4.85;;;;;;;13.12;nan;-24183.25;5032494;28;20168;-73
2022/11/20 04:50:46;;;;;;;9.02;5.38;;;;;;;12.96;nan;-24178.88;5032857;28;20178;-74
2022/11/20 04:53:11;;;;;;;8.18;3.75;;;;;;;13.26;nan;-24187.19;5032742;28;20180;-73
2022/11/20 04:55:36;;;;;;;7.22;4.55;;;;;;;13.61;nan;-24196.88;5032330;28;20168;-72
2022/11/20 04:58:02;;;;;;;5.22;3.58;;;;;;;13.53;nan;-24194.63;5032487;28;20269;-73
2022/11/20 05:00:27;;;;;;;6.45;4.07;;;;;;;13.46;nan;-24192.78;5032574;28;20649;-73
2022/11/20 05:02:53;;;;;;;6.15;4.18;;;;;;;13.54;nan;-24195.03;5012580;28;20180;-74
2022/11/20 05:05:18;;;;;;;6.90;3.85;;;;;;;13.50;nan;-24193.78;5012354;28;20223;-74
2022/11/20 05:07:44;;;;;;;6.13;3.17;;;;;;;14.09;nan;-24210.34;5012759;28;20172;-73
2022/11/20 05:10:09;;;;;;;7.45;3.40;;;;;;;13.74;nan;-24200.53;5012272;28;20175;-73
2022/11/20 05:12:34;;;;;;;8.52;3.40;;;;;;;13.94;nan;-24206.13;5029545;28;20804;-74
2022/11/20 05:15:00;;;;;;;10.93;4.53;;;;;;;13.86;nan;-24203.75;5031994;28;20257;-73
2022/11/20 05:17:25;;;;;;;5.40;3.20;;;;;;;13.82;nan;-24202.63;5031662;28;20321;-73
2022/11/20 05:19:50;;;;;;;2.88;2.42;;;;;;;14.02;nan;-24208.38;5030986;28;20650;-73
2022/11/20 05:22:16;;;;;;;4.65;2.97;;;;;;;13.52;nan;-24194.34;5032052;28;20180;-74
2022/11/20 05:24:41;;;;;;;8.20;3.22;;;;;;;13.41;nan;-24191.38;5030737;28;20164;-74
2022/11/20 05:27:06;;;;;;;7.18;3.00;;;;;;;13.42;nan;-24191.53;5027095;28;20289;-73
2022/11/20 05:29:32;;;;;;;6.28;3.63;;;;;;;13.62;nan;-24197.28;5032126;28;20179;-74
2022/11/20 05:31:57;;;;;;;6.95;3.78;;;;;;;13.54;nan;-24195.03;5031632;28;20187;-73
2022/11/20 05:34:22;;;;;;;6.40;4.20;;;;;;;13.40;nan;-24191.13;5031900;28;20172;-74
2022/11/20 05:36:48;;;;;;;6.22;3.63;;;;;;;13.21;nan;-24185.91;5032250;28;20171;-73
2022/11/20 05:39:13;;;;;;;5.50;3.85;;;;;;;13.26;nan;-24187.31;5031934;28;20229;-72
2022/11/20 05:41:39;;;;;;;5.85;3.55;;;;;;;13.59;nan;-24196.31;5031855;28;20184;-73
2022/11/20 05:44:04;;;;;;;7.38;3.88;;;;;;;13.46;nan;-24192.78;5031722;28;20257;-74
2022/11/20 05:46:30;;;;;;;5.57;3.75;;;;;;;13.43;nan;-24191.81;5031540;28;20225;-73
2022/11/20 05:48:56;;;;;;;6.10;3.75;;;;;;;13.48;nan;-24193.22;5031435;28;20216;-72
2022/11/20 05:51:22;;;;;;;6.47;3.65;;;;;;;13.41;nan;-24191.25;5013911;28;20340;-74
2022/11/20 05:53:47;;;;;;;6.75;3.75;;;;;;;13.45;nan;-24192.38;5031419;28;20638;-72
2022/11/20 05:56:20;;;;;;;6.78;3.67;;;;;;;13.06;nan;-24181.69;5031398;28;20191;-74
2022/11/20 05:58:46;;;;;;;5.57;3.97;;;;;;;13.44;nan;-24192.09;5031529;28;20653;-74
2022/11/20 06:01:17;;;;;;;6.75;4.00;;;;;;;13.16;nan;-24184.50;5031344;28;20676;-73
2022/11/20 06:03:45;;;;;;;6.45;4.10;;;;;;;13.40;nan;-24191.13;5032278;28;20267;-73
2022/11/20 06:06:11;;;;;;;7.85;4.05;;;;;;;13.23;nan;-24186.34;5031481;28;20175;-72
2022/11/20 06:08:37;;;;;;;5.53;4.00;;;;;;;12.85;nan;-24175.94;5031818;28;20257;-74
2022/11/20 06:11:04;;;;;;;5.55;3.72;;;;;;;12.51;nan;-24166.38;5018561;28;20250;-75
2022/11/20 06:13:30;;;;;;;10.38;4.70;;;;;;;13.30;nan;-24188.31;5031467;28;20183;-75
2022/11/20 06:15:55;;;;;;;6.38;4.07;;;;;;;13.24;nan;-24186.63;5031306;28;20239;-74
2022/11/20 06:18:21;;;;;;;6.53;4.07;;;;;;;13.19;nan;-24185.34;5031261;28;20273;-74
2022/11/20 06:20:46;;;;;;;5.20;4.10;;;;;;;13.24;nan;-24186.75;5031854;28;20203;-74
2022/11/20 06:23:12;;;;;;;6.38;4.32;;;;;;;13.49;nan;-24193.63;5031546;28;20194;-74
2022/11/20 06:25:42;;;;;;;6.57;3.90;;;;;;;13.76;nan;-24201.09;5031813;28;20553;-73
2022/11/20 06:28:09;;;;;;;10.38;3.80;;;;;;;13.60;nan;-24196.59;5031479;28;20529;-73
2022/11/20 06:30:35;;;;;;;8.90;4.25;;;;;;;13.48;nan;-24193.22;5013361;28;20205;-74
2022/11/20 06:33:01;;;;;;;6.50;4.05;;;;;;;13.02;nan;-24180.44;5030681;28;20581;-73
2022/11/20 06:35:26;;;;;;;6.57;4.45;;;;;;;13.55;nan;-24195.19;5031166;28;20171;-73
2022/11/20 06:37:52;;;;;;;7.35;4.38;;;;;;;13.35;nan;-24189.72;5031573;28;20176;-72
2022/11/20 06:40:17;;;;;;;6.43;3.95;;;;;;;13.30;nan;-24188.31;5031475;28;20231;-73
2022/11/20 06:42:43;;;;;;;9.85;3.70;;;;;;;13.06;nan;-24181.56;5030929;28;20206;-73
2022/11/20 06:45:09;;;;;;;9.48;4.47;;;;;;;13.39;nan;-24190.69;5013011;28;20729;-72
2022/11/20 06:47:34;;;;;;;7.75;4.57;;;;;;;13.85;nan;-24203.59;5030991;28;20247;-75
2022/11/20 06:49:59;;;;;;;6.80;4.20;;;;;;;13.59;nan;-24196.44;5031259;28;20172;-74
2022/11/20 06:52:25;;;;;;;11.07;4.32;;;;;;;14.07;nan;-24209.63;5030837;28;20203;-72
2022/11/20 06:54:50;;;;;;;6.55;4.18;;;;;;;13.83;nan;-24203.03;5028843;28;20619;-74
2022/11/20 06:57:16;;;;;;;7.97;4.82;;;;;;;13.95;nan;-24206.41;5020113;28;20188;-73
2022/11/20 06:59:41;;;;;;;7.15;3.85;;;;;;;14.61;nan;-24224.66;5019862;28;20222;-73
2022/11/20 07:02:10;;;;;;;7.72;4.30;;;;;;;14.39;nan;-24218.63;5024700;28;20579;-75
2022/11/20 07:04:36;;;;;;;6.00;3.90;;;;;;;14.34;nan;-24217.06;5031403;28;20182;-72
2022/11/20 07:07:01;;;;;;;7.47;3.85;;;;;;;14.62;nan;-24224.78;5030718;28;20507;-74
2022/11/20 07:09:26;;;;;;;8.25;4.40;;;;;;;14.90;nan;-24232.63;5030948;28;20168;-74
2022/11/20 07:11:52;;;;;;;8.10;3.20;;;;;;;14.87;nan;-24231.94;5030723;28;20600;-75
2022/11/20 07:14:17;;;;;;;5.18;3.30;;;;;;;15.34;nan;-24244.97;5030949;28;20175;-74
2022/11/20 07:16:42;;;;;;;11.60;4.65;;;;;;;15.11;nan;-24238.53;5030932;28;20172;-75
2022/11/20 07:19:08;;;;;;;6.80;4.50;;;;;;;14.62;nan;-24224.78;5035125;28;20626;-74
2022/11/20 07:21:33;;;;;;;7.20;3.97;;;;;;;15.25;nan;-24242.44;5034599;28;20183;-74
2022/11/20 07:23:59;;;;;;;5.47;3.45;;;;;;;15.30;nan;-24243.72;5034565;28;20175;-74
2022/11/20 07:26:24;;;;;;;4.68;3.20;;;;;;;15.68;nan;-24254.34;5034492;28;20168;-73
2022/11/20 07:28:49;;;;;;;7.63;3.42;;;;;;;15.41;nan;-24246.94;5034221;28;20175;-75
2022/11/20 07:31:15;;;;;;;7.03;3.85;;;;;;;15.58;nan;-24251.41;5016098;28;20195;-74
2022/11/20 07:33:40;;;;;;;5.13;3.38;;;;;;;15.36;nan;-24245.38;5034793;28;20167;-74
2022/11/20 07:36:06;;;;;;;7.55;3.50;;;;;;;15.29;nan;-24243.44;5034485;28;20167;-74
2022/11/20 07:38:31;;;;;;;7.60;2.90;;;;;;;15.55;nan;-24250.56;5034081;28;20714;-74
2022/11/20 07:40:57;;;;;;;7.70;3.28;;;;;;;15.75;nan;-24256.31;5034553;28;20266;-75
2022/11/20 07:43:25;;;;;;;7.07;3.28;;;;;;;15.78;nan;-24257.16;5030918;28;20236;-74
2022/11/20 07:45:50;;;;;;;4.85;3.03;;;;;;;15.58;nan;-24251.56;5024545;28;20180;-73
2022/11/20 07:48:16;;;;;;;8.32;3.40;;;;;;;15.59;nan;-24251.84;5016909;28;20176;-75
2022/11/20 07:50:41;;;;;;;5.93;3.58;;;;;;;15.19;nan;-24240.78;5034279;28;20202;-75
2022/11/20 07:53:07;;;;;;;8.30;3.50;;;;;;;15.65;nan;-24253.38;5033579;28;20712;-74
2022/11/20 07:55:32;;;;;;;4.57;3.22;;;;;;;15.58;nan;-24251.56;5034192;28;20285;-74
2022/11/20 07:57:58;;;;;;;5.93;3.17;;;;;;;15.48;nan;-24248.75;5033653;28;20171;-74
2022/11/20 08:00:25;;;;;;;10.27;3.67;;;;;;;15.36;nan;-24245.53;5025228;28;20559;-75
2022/11/20 08:02:51;;;;;;;5.95;3.58;;;;;;;15.16;nan;-24239.78;5017211;28;20184;-75
2022/11/20 08:05:16;;;;;;;6.63;3.78;;;;;;;15.32;nan;-24244.28;5032523;28;20203;-73
2022/11/20 08:07:43;;;;;;;5.60;3.35;;;;;;;15.26;nan;-24242.59;5033239;28;20213;-75
2022/11/20 08:10:11;;;;;;;9.18;3.35;;;;;;;15.55;nan;-24250.72;5033498;28;20233;-75
2022/11/20 08:15:26;;;;;;;9.25;4.00;;;;;;;15.68;nan;-24254.22;5033452;28;20226;-75
2022/11/20 08:17:52;;;;;;;6.88;3.35;;;;;;;15.66;nan;-24253.66;5028730;28;20222;-74
2022/11/20 08:20:17;;;;;;;5.35;3.30;;;;;;;16.11;nan;-24266.25;5013338;28;20214;-75
2022/11/20 08:22:43;;;;;;;5.80;3.70;;;;;;;15.85;nan;-24258.97;5013457;28;20168;-74
2022/11/20 08:25:09;;;;;;;9.63;4.18;;;;;;;16.01;nan;-24263.31;5011931;28;20523;-75
2022/11/20 08:27:34;;;;;;;7.25;3.60;;;;;;;15.95;nan;-24261.63;5012724;28;20179;-74
2022/11/20 08:30:00;;;;;;;6.88;3.45;;;;;;;15.85;nan;-24258.97;5011656;28;20343;-75
2022/11/20 08:32:25;;;;;;;9.02;4.28;;;;;;;16.43;nan;-24275.06;5012917;28;20292;-73
2022/11/20 08:34:50;;;;;;;8.65;3.88;;;;;;;16.56;nan;-24278.69;5011801;28;20200;-75
2022/11/20 08:37:16;;;;;;;7.45;4.03;;;;;;;16.63;nan;-24280.50;5013112;28;20625;-75
2022/11/20 08:39:41;;;;;;;7.28;4.10;;;;;;;16.52;nan;-24277.56;5013449;28;20164;-76
2022/11/20 08:42:08;;;;;;;6.95;4.28;;;;;;;16.77;nan;-24284.56;5012944;28;20211;-75
2022/11/20 08:44:33;;;;;;;8.63;5.10;;;;;;;17.03;nan;-24291.53;5013251;28;20211;-75
2022/11/20 08:47:00;;;;;;;8.20;4.25;;;;;;;17.03;nan;-24291.69;5013411;28;20179;-76
2022/11/20 08:49:25;;;;;;;7.05;4.10;;;;;;;17.40;nan;-24301.72;5012969;28;20244;-75
2022/11/20 08:51:54;;;;;;;5.72;3.63;;;;;;;17.08;nan;-24292.94;5012997;28;20282;-76
2022/11/20 08:54:21;;;;;;;10.05;4.45;;;;;;;17.11;nan;-24293.78;5012898;28;20171;-74
2022/11/20 08:56:47;;;;;;;11.60;5.97;;;;;;;17.14;nan;-24294.75;5012772;28;20191;-75
2022/11/20 08:59:13;;;;;;;11.55;6.03;;;;;;;17.65;nan;-24308.84;5012729;28;20168;-75
2022/11/20 09:01:38;;;;;;;13.70;7.10;;;;;;;18.06;nan;-24320.00;5012665;28;20176;-75
2022/11/20 09:04:04;;;;;;;21.40;10.82;;;;;;;18.10;nan;-24321.13;5012706;28;20176;-75
2022/11/20 09:06:30;;;;;;;18.73;9.55;;;;;;;18.30;nan;-24326.56;5012464;28;20179;-76
2022/11/20 09:08:56;;;;;;;10.20;6.13;;;;;;;18.29;nan;-24326.28;5011342;28;20176;-75
2022/11/20 09:11:22;;;;;;;5.07;3.58;;;;;;;18.54;nan;-24333.38;5019521;28;20222;-75
2022/11/20 09:13:48;;;;;;;4.55;3.13;;;;;;;18.36;nan;-24328.22;5032419;28;20641;-75
2022/11/20 09:16:13;;;;;;;6.18;2.78;;;;;;;18.96;nan;-24344.81;5032354;28;20593;-74
2022/11/20 09:18:39;;;;;;;5.70;3.03;;;;;;;18.86;nan;-24342.16;5032325;28;20179;-75
2022/11/20 09:21:10;;;;;;;4.78;2.78;;;;;;;19.29;nan;-24354.00;5032542;28;20179;-75
2022/11/20 09:23:36;;;;;;;4.90;2.85;;;;;;;20.05;nan;-24374.72;5014551;28;20571;-75
2022/11/20 09:26:06;;;;;;;3.70;2.60;;;;;;;19.91;nan;-24370.97;5032117;28;20541;-74
2022/11/20 09:28:31;;;;;;;4.75;2.55;;;;;;;19.82;nan;-24368.47;5032339;28;20218;-76
2022/11/20 09:30:58;;;;;;;4.00;2.28;;;;;;;19.69;nan;-24364.84;5032072;28;20179;-75
2022/11/20 09:33:23;;;;;;;3.90;2.38;;;;;;;19.29;nan;-24353.84;5032823;28;20194;-75
2022/11/20 09:35:48;;;;;;;3.90;2.42;;;;;;;19.71;nan;-24365.41;5032316;28;20203;-75
2022/11/20 09:38:14;;;;;;;3.72;2.63;;;;;;;19.80;nan;-24368.03;5031702;28;20694;-75
2022/11/20 09:41:05;;;;;;;3.58;2.58;;;;;;;20.58;nan;-24389.28;5032109;28;20170;-74
2022/11/20 09:43:40;;;;;;;6.22;2.55;;;;;;;21.06;nan;-24402.47;5032092;28;20504;-76
2022/11/20 09:46:23;;;;;;;3.58;2.40;;;;;;;21.30;nan;-24409.00;5031580;28;20170;-76
2022/11/20 09:49:03;;;;;;;4.03;2.38;;;;;;;21.22;nan;-24406.78;5031863;28;20567;-76
2022/11/20 09:51:52;;;;;;;2.25;2.05;;;;;;;21.35;nan;-24410.38;5032038;28;20234;-75
2022/11/20 09:54:20;;;;;;;3.35;2.10;;;;;;;20.72;nan;-24393.19;5031574;28;20177;-75
2022/11/20 09:56:54;;;;;;;3.65;2.30;;;;;;;20.42;nan;-24384.84;5031543;28;20257;-75
2022/11/20 09:59:22;;;;;;;4.88;2.03;;;;;;;20.62;nan;-24390.53;5031023;28;20176;-76
2022/11/20 10:01:48;;;;;;;3.40;2.35;;;;;;;20.85;nan;-24396.78;5031507;28;20167;-76
2022/11/20 10:04:18;;;;;;;3.78;2.15;;;;;;;20.89;nan;-24397.91;5031654;28;20179;-76
2022/11/20 10:07:08;;;;;;;4.13;2.60;;;;;;;21.41;nan;-24412.03;5031117;28;20675;-75
2022/11/20 10:09:42;;;;;;;4.32;2.83;;;;;;;21.28;nan;-24408.56;5030942;28;20182;-75
2022/11/20 10:12:15;;;;;;;6.97;2.60;;;;;;;21.09;nan;-24403.44;5031279;28;20229;-76
2022/11/20 10:14:48;;;;;;;5.45;2.72;;;;;;;21.10;nan;-24403.72;5031249;28;20254;-75
2022/11/20 10:17:21;;;;;;;3.92;2.60;;;;;;;20.71;nan;-24393.03;5013420;28;20601;-76
2022/11/20 10:20:12;;;;;;;4.35;2.63;;;;;;;21.27;nan;-24408.28;5031216;28;20209;-75
2022/11/20 10:23:03;;;;;;;4.05;2.58;;;;;;;21.08;nan;-24403.03;5030987;28;20186;-75
2022/11/20 10:25:43;;;;;;;5.38;3.03;;;;;;;21.29;nan;-24408.72;5031148;28;20238;-81
2022/11/20 10:29:00;;;;;;;8.88;4.25;;;;;;;21.31;nan;-24409.28;5031280;28;20170;-74
2022/11/20 10:31:34;;;;;;;6.07;3.15;;;;;;;21.36;nan;-24410.66;5026692;28;20686;-74
2022/11/20 10:34:06;;;;;;;5.85;2.95;;;;;;;21.42;nan;-24412.31;5024678;28;20252;-74
2022/11/20 10:36:43;;;;;;;5.53;2.85;;;;;;;21.15;nan;-24405.09;5026282;28;20214;-73
2022/11/20 10:39:38;;;;;;;6.68;2.72;;;;;;;21.23;nan;-24407.03;5031315;28;20180;-76
2022/11/20 10:42:10;;;;;;;3.92;2.42;;;;;;;21.04;nan;-24402.06;5031095;28;20167;-76
2022/11/20 10:47:23;;;;;;;5.50;2.80;;;;;;;21.43;nan;-24412.59;5028926;28;20503;-74
2022/11/20 10:49:55;;;;;;;5.80;3.13;;;;;;;21.72;nan;-24420.50;5016800;28;20191;-75
2022/11/20 10:52:31;;;;;;;5.07;3.03;;;;;;;21.62;nan;-24417.84;5031412;28;20199;-74
2022/11/20 10:55:11;;;;;;;4.30;2.67;;;;;;;21.23;nan;-24407.19;5016982;28;20578;-75
2022/11/20 10:58:21;;;;;;;11.95;3.30;;;;;;;21.35;nan;-24410.38;5030351;28;20182;-75
2022/11/20 11:00:46;;;;;;;5.25;3.05;;;;;;;21.19;nan;-24406.06;5029560;28;20176;-76
2022/11/20 11:03:25;;;;;;;4.88;2.78;;;;;;;21.35;nan;-24410.38;5025425;28;20187;-74
2022/11/20 11:06:03;;;;;;;5.32;3.08;;;;;;;21.50;nan;-24414.66;5030544;28;20701;-76
2022/11/20 11:08:35;;;;;;;5.53;3.50;;;;;;;21.47;nan;-24413.69;5034869;28;20183;-75
2022/11/20 11:11:13;;;;;;;6.50;3.08;;;;;;;21.42;nan;-24412.31;5034349;28;20226;-74
2022/11/20 11:13:38;;;;;;;6.85;3.47;;;;;;;21.42;nan;-24412.47;5034280;28;20179;-74
2022/11/20 11:16:04;;;;;;;5.43;3.22;;;;;;;21.37;nan;-24410.94;5030574;28;20182;-76
2022/11/20 11:18:34;;;;;;;7.25;3.10;;;;;;;21.54;nan;-24415.78;5023044;28;20191;-76
2022/11/20 11:21:02;;;;;;;5.95;3.03;;;;;;;21.63;nan;-24418.13;5026108;28;20678;-75
2022/11/20 11:23:39;;;;;;;4.05;3.05;;;;;;;21.44;nan;-24412.88;5034590;28;20171;-76
2022/11/20 11:26:18;;;;;;;7.22;3.72;;;;;;;21.34;nan;-24410.09;5034164;28;20190;-76
2022/11/20 11:28:53;;;;;;;9.93;3.78;;;;;;;21.06;nan;-24402.47;5034075;28;20163;-76
2022/11/20 11:31:27;;;;;;;6.35;3.42;;;;;;;20.86;nan;-24397.06;5016191;28;20658;-75
2022/11/20 11:34:03;;;;;;;8.65;3.60;;;;;;;20.86;nan;-24396.91;5017061;28;20565;-77
2022/11/20 11:36:28;;;;;;;6.95;3.05;;;;;;;20.69;nan;-24392.47;5014838;28;20643;-76
2022/11/20 11:38:54;;;;;;;4.82;3.10;;;;;;;20.58;nan;-24389.28;5014365;28;20164;-76
2022/11/20 11:41:23;;;;;;;5.43;3.03;;;;;;;20.57;nan;-24389.00;5013952;28;20545;-77
2022/11/20 11:46:52;;;;;;;4.90;2.67;;;;;;;20.00;nan;-24373.47;5013693;28;20219;-76
2022/11/20 11:49:18;;;;;;;4.28;2.25;;;;;;;20.34;nan;-24382.78;5012717;28;20274;-73